Terminal Aerodrome Forecast
Issued by NWS

Home | Current Version | Previous Version | Text Only | Print | Product List | Glossary On
Versions: 1 2 3 4 5 6 7 8 9 10 11 12 13 14 15 16 17 18 19
861
FTUS42 KFFC 281523 AAB
TAFPDK
TAF AMD
KPDK 281523Z 2815/2912 25010KT P6SM BKN015 BKN250
     FM281700 25013G22KT P6SM BKN050
     FM290100 25004KT P6SM SCT100
     FM290800 25003KT P6SM BKN100 PROB30 2908/2912 4SM -TSRA BR
      BKN025CB=

USA.gov is the U.S. government's official web portal to all federal, state and local government web resources and services.